Kansas, Illinois
Current Conditions -  °F | °C
As of 10:35 AM on Monday 26 Jan 2015 (Local Time) from KPRG Reporting Station
Overcast Overcast  
Wind Chill: 19°   Ceiling: 1500
Heat Index: 28°   Visibility: 10mi
Dew Point: 24°   Wind: 9mph
Humidity: 84%   Direction: 40°NE
Pressure: 29.99"   Gusts: NA
Location:  39.55°N, 87.94°W
Report Text: KPRG 261635Z AUTO 04008KT 10SM BKN015 OVC020 M02/M04 A2999 RMK AO2 T10211045
Loading
Personal Weather Stations






























Interactive Weather Map New forecast layout! Learn more

10-Day Weather Forecast

Advertisements
Track Severe Weather on mobile